Current | Forecast
Updated: 6:00 PM JST on April 21, 2018
Observed at Osaka Airport, Japan
Temperature 72°F
Humidity 33%
Dew Point 41°F
Wind WSW at 12 mph
Pressure 30.09 in (Steady)
Conditions Clear
Visibility -
UV N/A
Clouds
Yesterday's Maximum 79°F
Yesterday's Minimum 70°F approx.
Yesterday's Cooling Degree Days 9 approx.
Sunrise5:18 AM JST
Sunset6:34 PM JST
Moon Rise9:27 AM JST
Moon Set11:59 PM JST
Moon PhaseMoon Phase
Waxing Crescent
Raw METARMETAR RJOO 210900Z 24010KT 220V280 CAVOK 22/05 Q1019 RMK A3011


Monday
. High: 80° F.
Tuesday
. High: 77° F.
Wednesday
. High: 75° F.
Thursday
. High: 77° F.
Friday
. High: 84° F.
Saturday
. High: 80° F.
Sunday
. High: 84° F.
Monday
. High: 82° F.

Units: English | Metric

Find the Weather for any City, State or Zipcode, or Country:

U.S. State List | Severe Weather | Tropical Storms | Ski Conditions
United States | Canada | Central America | South America | Asia | Europe | Australia | Africa | Islands

Weather Underground

© Copyright 2018
The Weather Company, LLC